Home > Products > Valid Products > TAF

000
FTUS45 KVEF 310800 AAA
TAFLAS
TAF AMD
KLAS 310850Z 3109/0106 21008KT P6SM FEW150 BKN220
     FM311500 VRB06KT P6SM SCT150 SCT250
     FM312000 14011KT P6SM SCT150 SCT250
     FM312100 19015G24KT P6SM FEW150 BKN250
     FM010100 20011KT P6SM FEW150 BKN250=



000
FTUS45 KVEF 310500
TAFEED
TAF
KEED 310529Z 3106/0106 25006KT P6SM SCT200
     FM311000 VRB05KT P6SM FEW200
     FM311900 17010KT P6SM FEW200
     FM312100 19013G21KT P6SM SCT200
     FM010100 22011KT P6SM SCT200=



000
FTUS45 KVEF 310500
TAFBIH
TAF
KBIH 310529Z 3106/0106 16012G20KT P6SM SCT200
     FM310900 16011KT P6SM FEW200
     FM311900 17020G30KT P6SM SCT150 SCT200
     FM010200 16014G22KT P6SM SCT150 SCT200=



000
FTUS45 KVEF 310500
TAFDAG
TAF
KDAG 310529Z 3106/0106 26006KT P6SM FEW150 SCT250
     FM311500 29006KT P6SM FEW150 FEW250
     FM312300 24012G20KT P6SM BKN250
     FM010200 25017G25KT P6SM BKN250=



000
FTUS45 KVEF 310500
TAFVGT
TAF
KVGT 310529Z 3106/0106 VRB04KT P6SM SCT150 BKN250
     FM312000 14011KT P6SM SCT150 SCT250
     FM312200 18014G22KT P6SM FEW150 BKN250
     FM010100 20011KT P6SM FEW150 BKN250=



000
FTUS45 KVEF 310500
TAFLAS
TAF
KLAS 310529Z 3106/0106 21008KT P6SM FEW150 BKN220
     FM311500 VRB06KT P6SM SCT150 SCT250
     FM312000 14011KT P6SM SCT150 SCT250
     FM312100 19015G24KT P6SM FEW150 BKN250
     FM010100 20011KT P6SM FEW150 BKN250=



000
FTUS45 KVEF 310200 AAA
TAFLAS
TAF AMD
KLAS 310247Z 3103/3124 21008KT P6SM BKN250
     FM311500 VRB04KT P6SM SCT250
     FM312000 19015G23KT P6SM SCT250=



000
FTUS45 KVEF 302300
TAFEED
TAF
KEED 302320Z 3100/3124 VRB04KT P6SM BKN250
     FM310300 25006KT P6SM SCT250
     FM312100 19012G20KT P6SM SCT250=



000
FTUS45 KVEF 302300
TAFLAS
TAF
KLAS 302320Z 3100/3124 VRB04KT P6SM BKN250
     FM310300 21008KT P6SM BKN250
     FM311500 VRB04KT P6SM SCT250
     FM312000 19015G23KT P6SM SCT250=



000
FTUS45 KVEF 302300
TAFDAG
TAF
KDAG 302320Z 3100/3124 07007KT P6SM BKN250
     FM310400 26006KT P6SM SCT250
     FM312100 24012G20KT P6SM SCT250=



000
FTUS45 KVEF 302300
TAFBIH
TAF
KBIH 302320Z 3100/3124 16018G26KT P6SM BKN250
     FM310300 16012G20KT P6SM SCT200
     FM310900 21008KT P6SM FEW200
     FM312000 17020G30KT P6SM SCT150 SCT200=



000
FTUS45 KVEF 302300
TAFVGT
TAF
KVGT 302320Z 3100/3124 15005KT P6SM BKN250
     FM310400 29004KT P6SM BKN250
     FM311500 VRB04KT P6SM SCT250
     FM312000 18014G22KT P6SM SCT250=



000
FTUS45 KVEF 302000 AAA
TAFLAS
TAF AMD
KLAS 302055Z 3021/3118 04005KT P6SM SCT250
     FM310000 14006KT P6SM BKN250
     FM310300 21006KT P6SM BKN250=



000
FTUS45 KVEF 301700
TAFBIH
TAF
KBIH 301730Z 3018/3118 32004KT P6SM BKN250
     FM301900 17014G22KT P6SM BKN250
     FM310200 17007KT P6SM SCT200
     FM310900 21008KT P6SM FEW200=



000
FTUS45 KVEF 301700
TAFLAS
TAF
KLAS 301730Z 3018/3118 04005KT P6SM SCT250
     FM302200 14006KT P6SM BKN250
     FM310300 21006KT P6SM BKN250=



000
FTUS45 KVEF 301700
TAFBIH
TAF
KBIH 301730Z 3018/3118 32004KT P6SM BKN250
     FM301900 17014G22KT P6SM BKN250
     FM310200 17007KT P6SM SCT200
     FM310900 21008KT P6SM FEW200=



000
FTUS45 KVEF 301700
TAFEED
TAF
KEED 301730Z 3018/3118 03006KT P6SM SCT250
     FM302200 18006KT P6SM BKN250
     FM310300 25006KT P6SM SCT250=



000
FTUS45 KVEF 301700
TAFVGT
TAF
KVGT 301730Z 3018/3118 VRB05KT P6SM SCT250
     FM301900 15006KT P6SM BKN250
     FM310400 29004KT P6SM BKN250=



000
FTUS45 KVEF 301700
TAFDAG
TAF
KDAG 301730Z 3018/3118 VRB04KT P6SM SCT250
     FM302000 07007KT P6SM BKN250
     FM310100 VRB04KT P6SM SCT250
     FM310400 26006KT P6SM FEW250=



000
FTUS45 KVEF 301700
TAFLAS
TAF
KLAS 301730Z 3018/3118 04005KT P6SM SCT250
     FM302200 14006KT P6SM BKN250
     FM310300 21006KT P6SM BKN250=



000
FTUS45 KVEF 301700
TAFEED
TAF
KEED 301730Z 3018/3118 03006KT P6SM SCT250
     FM302200 18006KT P6SM BKN250
     FM310300 25006KT P6SM SCT250=



000
FTUS45 KVEF 301700
TAFDAG
TAF
KDAG 301730Z 3018/3118 VRB04KT P6SM SCT250
     FM302000 07007KT P6SM BKN250
     FM310100 VRB04KT P6SM SCT250
     FM310400 26006KT P6SM FEW250=



000
FTUS45 KVEF 301700
TAFVGT
TAF
KVGT 301730Z 3018/3118 VRB05KT P6SM SCT250
     FM301900 15006KT P6SM BKN250
     FM310400 29004KT P6SM BKN250=



000
FTUS45 KVEF 301400 AAA
TAFLAS
TAF AMD
KLAS 301447Z 3015/3112 VRB05KT P6SM SCT250
     FM302200 14006KT P6SM BKN250
     FM310300 21006KT P6SM BKN250=



000
FTUS45 KVEF 301100
TAFLAS
TAF
KLAS 301120Z 3012/3112 23006KT P6SM SKC
     FM301600 VRB05KT P6SM SCT250
     FM302200 14006KT P6SM BKN250
     FM310300 21006KT P6SM BKN250=



000
FTUS45 KVEF 301100
TAFBIH
TAF
KBIH 301120Z 3012/3112 32004KT P6SM BKN250
     FM301900 17014G22KT P6SM BKN250
     FM310200 17007KT P6SM SCT200
     FM310900 21008KT P6SM FEW200=



000
FTUS45 KVEF 301100
TAFDAG
TAF
KDAG 301120Z 3012/3112 VRB04KT P6SM SCT250
     FM302000 07007KT P6SM BKN250
     FM310100 VRB04KT P6SM SCT250
     FM310400 26006KT P6SM FEW250=



000
FTUS45 KVEF 301100
TAFVGT
TAF
KVGT 301120Z 3012/3112 31005KT P6SM SKC
     FM301600 VRB05KT P6SM SCT250
     FM301900 15006KT P6SM BKN250
     FM310400 29004KT P6SM BKN250=



000
FTUS45 KVEF 301100
TAFEED
TAF
KEED 301120Z 3012/3112 26004KT P6SM SKC
     FM301600 03006KT P6SM SCT250
     FM302200 18006KT P6SM BKN250
     FM310300 25006KT P6SM SCT250=



000
FTUS45 KVEF 300800 AAA
TAFLAS
TAF AMD
KLAS 300845Z 3009/3106 22006KT P6SM SKC
     FM301600 VRB05KT P6SM SCT250
     FM302200 14006KT P6SM BKN250
     FM310300 21006KT P6SM BKN250=



000
FTUS45 KVEF 300500
TAFLAS
TAF
KLAS 300527Z 3006/3106 20008KT P6SM SKC
     FM301600 VRB05KT P6SM SCT250
     FM302200 14006KT P6SM BKN250
     FM310300 21006KT P6SM BKN250=



000
FTUS45 KVEF 300500
TAFVGT
TAF
KVGT 300527Z 3006/3106 34003KT P6SM SKC
     FM301600 VRB05KT P6SM SCT250
     FM301900 15006KT P6SM BKN250
     FM310400 29004KT P6SM BKN250=



000
FTUS45 KVEF 300500
TAFDAG
TAF
KDAG 300527Z 3006/3106 29005KT P6SM SKC
     FM302000 07007KT P6SM BKN250
     FM310100 VRB04KT P6SM SCT250
     FM310400 26006KT P6SM SCT250=



000
FTUS45 KVEF 300500
TAFEED
TAF
KEED 300527Z 3006/3106 31004KT P6SM SKC
     FM301600 03006KT P6SM SCT250
     FM302200 18006KT P6SM BKN250
     FM310300 25006KT P6SM SCT250=



000
FTUS45 KVEF 300500
TAFBIH
TAF
KBIH 300527Z 3006/3106 18005KT P6SM SKC
     FM300700 33006KT P6SM BKN250
     FM301900 17014G22KT P6SM BKN250
     FM310200 17007KT P6SM SCT200=



000
FTUS45 KVEF 300200 AAA
TAFLAS
TAF AMD
KLAS 300245Z 3003/3024 20008KT P6SM SKC
     FM301600 VRB05KT P6SM BKN250=



000
FTUS45 KVEF 292300
TAFLAS
TAF
KLAS 292320Z 3000/3024 05005KT P6SM SKC
     FM300200 20007KT P6SM SKC
     FM301600 VRB05KT P6SM BKN250=



000
FTUS45 KVEF 292300
TAFEED
TAF
KEED 292320Z 3000/3024 01008KT P6SM SKC
     FM300200 29006KT P6SM SKC
     FM301600 03006KT P6SM SCT250
     FM302200 18006KT P6SM BKN250=



000
FTUS45 KVEF 292300
TAFVGT
TAF
KVGT 292320Z 3000/3024 15005KT P6SM SKC
     FM300300 33006KT P6SM SKC
     FM301600 VRB05KT P6SM SCT250
     FM301900 15006KT P6SM BKN250=



000
FTUS45 KVEF 292300
TAFDAG
TAF
KDAG 292320Z 3000/3024 06006KT P6SM SKC
     FM300100 VRB05KT P6SM SKC
     FM300700 27008KT P6SM SKC
     FM302000 07007KT P6SM BKN250=



000
FTUS45 KVEF 292300
TAFBIH
TAF
KBIH 292320Z 3000/3024 17010KT P6SM SCT250
     FM300300 VRB06KT P6SM SCT250
     FM300700 33006KT P6SM BKN250
     FM301900 17012G22KT P6SM BKN250=



000
FTUS45 KVEF 291700
TAFDAG
TAF
KDAG 291720Z 2918/3018 29009KT P6SM SKC
     FM292000 07006KT P6SM SKC
     FM300100 VRB05KT P6SM SKC
     FM300700 27008KT P6SM SCT250=



000
FTUS45 KVEF 291700
TAFVGT
TAF
KVGT 291720Z 2918/3018 VRB05KT P6SM SKC
     FM300300 33006KT P6SM SCT250
     FM301600 VRB05KT P6SM BKN250=



000
FTUS45 KVEF 291700
TAFBIH
TAF
KBIH 291720Z 2918/3018 33005KT P6SM SKC
     FM292000 16010KT P6SM SCT250
     FM300300 VRB05KT P6SM SCT250
     FM300700 33006KT P6SM BKN250=



000
FTUS45 KVEF 291700
TAFLAS
TAF
KLAS 291720Z 2918/3018 09005KT P6SM SKC
     FM300200 20007KT P6SM SCT250
     FM301600 VRB05KT P6SM BKN250=



000
FTUS45 KVEF 291700
TAFEED
TAF
KEED 291720Z 2918/3018 02008KT P6SM SKC
     FM300200 29006KT P6SM SKC
     FM301200 VRB05KT P6SM SCT250=



000
FTUS45 KVEF 291400 AAA
TAFLAS
TAF AMD
KLAS 291435Z 2915/3012 23005KT P6SM SKC
     FM291900 09005KT P6SM FEW250
     FM300200 20007KT P6SM SCT250=



000
FTUS45 KVEF 291100
TAFEED
TAF
KEED 291120Z 2912/3012 25004KT P6SM SKC
     FM291800 02008KT P6SM SKC
     FM300300 30006KT P6SM SKC=



000
FTUS45 KVEF 291100
TAFBIH
TAF
KBIH 291120Z 2912/3012 03005KT P6SM SKC
     FM292000 16010KT P6SM SCT250
     FM300300 21004KT P6SM BKN250=



000
FTUS45 KVEF 291100
TAFLAS
TAF
KLAS 291120Z 2912/3012 20010KT P6SM SKC
     FM291900 09005KT P6SM FEW250
     FM300200 20007KT P6SM SCT250=



000
FTUS45 KVEF 291100
TAFDAG
TAF
KDAG 291120Z 2912/3012 27009KT P6SM SKC
     FM292000 05007KT P6SM FEW250
     FM300100 VRB03KT P6SM SCT250=



000
FTUS45 KVEF 291100
TAFVGT
TAF
KVGT 291120Z 2912/3012 30006KT P6SM SKC
     FM291800 13005KT P6SM FEW250
     FM300300 32004KT P6SM SCT250=



000
FTUS45 KVEF 290500
TAFLAS
TAF
KLAS 290520Z 2906/3006 20007KT P6SM SKC
     FM291900 09005KT P6SM FEW250
     FM300200 20007KT P6SM SCT250=



000
FTUS45 KVEF 290500
TAFVGT
TAF
KVGT 290520Z 2906/3006 33004KT P6SM SKC
     FM291800 13005KT P6SM FEW250
     FM300300 32004KT P6SM SCT250=



000
FTUS45 KVEF 290500
TAFBIH
TAF
KBIH 290520Z 2906/3006 31005KT P6SM SKC
     FM292000 16010KT P6SM SCT250
     FM300300 21004KT P6SM BKN250=



000
FTUS45 KVEF 290500
TAFDAG
TAF
KDAG 290520Z 2906/3006 27005KT P6SM SKC
     FM292000 05007KT P6SM FEW250
     FM300100 VRB03KT P6SM SCT250=



000
FTUS45 KVEF 290500
TAFEED
TAF
KEED 290520Z 2906/3006 29006KT P6SM SKC
     FM291800 02008KT P6SM SKC
     FM300300 30006KT P6SM SKC=



000
FTUS45 KVEF 290200 AAB
TAFLAS
TAF AMD
KLAS 290248Z 2903/2924 21006KT P6SM SKC
     FM291900 09005KT P6SM SCT250=



000
FTUS45 KVEF 290100 AAA
TAFLAS
TAF AMD
KLAS 290145Z 2902/2924 19005KT P6SM SKC
     FM290300 21007KT P6SM SKC
     FM291900 09005KT P6SM SCT250=



000
FTUS45 KVEF 290100 AAA
TAFLAS
TAF AMD
KLAS 290145Z 2902/2924 19005KT P6SM SKC
     FM290300 21007KT P6SM SKC
     FM291900 09005KT P6SM SCT250=



000
FTUS45 KVEF 282300
TAFLAS
TAF
KLAS 282320Z 2900/2924 04005KT P6SM SKC
     FM290300 21007KT P6SM SKC
     FM291900 09005KT P6SM SCT250=



000
FTUS45 KVEF 282300
TAFEED
TAF
KEED 282320Z 2900/2924 03007KT P6SM SKC
     FM290200 30007KT P6SM SKC
     FM291800 02008KT P6SM SKC=



000
FTUS45 KVEF 282300
TAFBIH
TAF
KBIH 282320Z 2900/2924 17008KT P6SM SKC
     FM290400 33006KT P6SM SCT250
     FM292000 16010KT P6SM BKN250=



000
FTUS45 KVEF 282300
TAFDAG
TAF
KDAG 282320Z 2900/2924 06007KT P6SM SKC
     FM290100 VRB05KT P6SM SKC
     FM290700 27008KT P6SM SKC
     FM292000 05007KT P6SM SCT250=



000
FTUS45 KVEF 282300
TAFVGT
TAF
KVGT 282320Z 2900/2924 VRB05KT P6SM SKC
     FM290400 32005KT P6SM SKC
     FM291800 13005KT P6SM SCT250=



000
FTUS45 KVEF 282000 AAA
TAFLAS
TAF AMD
KLAS 282045Z 2821/2918 06005KT P6SM SKC
     FM290300 21007KT P6SM SKC=



000
FTUS45 KVEF 281700
TAFDAG
TAF
KDAG 281720Z 2818/2918 30007KT P6SM SKC
     FM282100 07007KT P6SM SKC
     FM290100 VRB05KT P6SM SKC
     FM290700 27008KT P6SM SKC=



000
FTUS45 KVEF 281700
TAFLAS
TAF
KLAS 281720Z 2818/2918 08005KT P6SM SKC
     FM290300 21007KT P6SM SKC=



000
FTUS45 KVEF 281700
TAFBIH
TAF
KBIH 281720Z 2818/2918 VRB05KT P6SM SKC
     FM282200 17008KT P6SM SKC
     FM290400 33006KT P6SM SCT250=



000
FTUS45 KVEF 281700
TAFEED
TAF
KEED 281720Z 2818/2918 02010KT P6SM SKC
     FM290200 30007KT P6SM SKC=



000
FTUS45 KVEF 281700
TAFVGT
TAF
KVGT 281720Z 2818/2918 VRB05KT P6SM SKC
     FM290400 32005KT P6SM SKC=



000
FTUS45 KVEF 281400 AAA
TAFLAS
TAF AMD
KLAS 281435Z 2815/2912 VRB05KT P6SM SKC
     FM290300 20007KT P6SM SKC=



000
FTUS45 KVEF 281100
TAFLAS
TAF
KLAS 281120Z 2812/2912 20007KT P6SM SKC
     FM281700 VRB04KT P6SM SKC
     FM290300 20007KT P6SM SKC=



000
FTUS45 KVEF 281100
TAFDAG
TAF
KDAG 281120Z 2812/2912 26009KT P6SM SKC
     FM282100 06007KT P6SM SKC
     FM290400 27004KT P6SM SKC=



000
FTUS45 KVEF 281100
TAFBIH
TAF
KBIH 281120Z 2812/2912 33006KT P6SM SKC
     FM282200 16008KT P6SM FEW250
     FM290400 35005KT P6SM SKC=



000
FTUS45 KVEF 281100
TAFVGT
TAF
KVGT 281120Z 2812/2912 28003KT P6SM SKC
     FM281800 05006KT P6SM SKC
     FM290400 31004KT P6SM SKC=



000
FTUS45 KVEF 281100
TAFEED
TAF
KEED 281120Z 2812/2912 30005KT P6SM SKC
     FM281600 02010KT P6SM SKC
     FM290100 33007KT P6SM SKC=



    US Dept of Commerce
    National Oceanic and Atmospheric Administration
    National Weather Service
    1325 East West Highway
    Silver Spring, MD 20910
    Page Author: NWS Internet Services Team
Disclaimer
Information Quality
Credits
Glossary
Privacy Policy
Freedom of Information Act (FOIA)
About Us
Career Opportunities